EUFO2: Eufaula Lake

Data processed at Sat Dec 20 23:09:33 2014 Central Standard Time


All information presented herein is the property of the government of the United States of America and may be revised or deleted at any time without prior notice.
Dissemination of this information without the expressed written consent of the Public Affairs Office, Tulsa District U.S. Army Corps of Engineers is strictly prohibited.
These data are gathered electronically and, as presented, have not undergone any form of quality control. These data are not guaranteed to be valid or correct.
Go to home page.
Go to station list.
Go to station map.

Upstream stations:

Downstream station: Previous Day
Next Day
Current Day

Display graphics.
Display DCP transmissions.


    
    SHEF ID:       EUFO2     Eufaula Lake
    STATION TYPE:  RESERVOIR
    Flood Control Pool:  Bottom =  585.00, Top =  597.00
    
                   PRECIP ELEVATION   STORAGE   TW-ELEV    INFLOW   RELEASE  AIR-TEMP  WIND-DIRWIND-SPEED REL-HUMID SOLAR-RAD   VOLTAGE
                   INCHES      FEET      ACFT      FEET       CFS       CFS     DEG-F   DEGREES       MPH   PERCENT      W/M2     VOLTS
                     GOES      GOES      GOES      GOES  COMPRESQ    POWERQ      GOES      GOES      GOES      GOES      GOES      GOES
       (Cen)
    12/20 01:00      0.00    582.10   1883479    484.08      ----      ----     41.22    349.50      1.43     99.33      0.00     13.75
    12/20 02:00      0.00    582.07   1880874    484.06      ----      ----     41.43    344.80      1.39     99.39      0.00     13.75
    12/20 03:00      0.00    582.08   1881744    484.04      ----      ----     41.32    347.20      1.20     99.51      0.00     13.75
    12/20 04:00      0.00    582.11   1884349    484.02      ----      ----     40.98    340.90      0.92     99.63      0.00     13.75
    12/20 05:00      0.00    582.09   1882609    484.01      ----      ----     41.09    343.40      1.30     99.76      0.00     13.75
    12/20 06:00      0.00    582.09   1882609    483.99      ----      ----     41.09      9.60      0.85     99.69      0.00     13.75
    12/20 07:00      0.00    582.11   1884349    483.98      ----      ----     41.32    346.60      0.96     99.82     -1.00     13.75
    12/20 08:00      0.00    582.11   1884349    483.97      ----      ----     40.98      6.50      2.62     99.76      2.00     13.75
    12/20 09:00      0.00    582.10   1883479    483.96      ----      ----     41.54     62.20      0.86     99.76     28.00     13.75
    12/20 10:00      0.00    582.12   1885219    483.95      ----      ----     42.42    123.40      1.61     99.10     57.00     13.75
    12/20 11:00      0.00    582.12   1885219    483.94      ----      ----     43.74    118.70      1.25     91.27     92.00     13.75
    12/20 12:00      0.00    582.11   1884349    483.93      ----      ----     44.73    161.80      2.05     89.01     76.00     13.75
    12/20 13:00      0.00    582.13   1886089    483.93      ----      ----     46.17     99.20      0.25     83.71    127.00     13.75
    12/20 14:00      0.00    582.13   1886089    483.92      ----      ----     45.61    298.90      1.13     86.75     69.00     13.75
    12/20 15:00      0.00    582.13   1886089    483.91      ----      ----     46.04    320.00      0.60     86.08     40.00     13.75
    12/20 16:00      0.00    582.13   1886089    483.90      ----      ----     46.26    273.80      0.95     88.77     29.00     13.75
    12/20 17:00      0.00    582.13   1886089    483.90      ----      ----     45.39    222.80      0.83     91.21     12.00     13.75
    12/20 18:00      0.00    582.13   1886089    483.90      ----      ----     44.83    163.80      0.86     95.18      1.00     13.76
    12/20 19:00      0.00    582.14   1886959    483.90      ----      ----     44.62    145.70      1.54     95.60      0.00     13.75
    12/20 20:00      0.00    582.15   1887829    483.89      ----      ----     44.40    122.10      1.46     96.40      0.00     13.75
    12/20 21:00      0.00    582.15   1887829    483.89      ----      ----     44.29    100.10      2.61     96.59      0.00     13.75
    12/20 22:00      0.00    582.14   1886959    483.89      ----      ----     44.40    109.30      2.38     97.01      0.00     13.75
    12/20 23:00      0.00    582.15   1887829    483.89      ----      ----     44.40    106.20      3.81     97.80      0.00     13.75
    12/21 00:00      ----      ----      ----      ----      ----      ----      ----      ----      ----      ----      ----      ----